X  Fermer Données météorologiques d'aviation de Metar        LECH Castellon-Costa Azahar
Température
30°C Température
22°C Point de rosée
62% Humidité



Vent
20 KM/H
13 MPH
6 M/S
11 KTS



120°
ESE
Conditions actuelles

Mostly Sunny Assez ensoleillé
Pression 1014 (hPa) - 29.93 (inHg)
Visibilité 6 (mile) - 10 (km)
Aéroport
Code de l'aéroport LECH

Emplacement: Castellon-Costa Azahar
Distance: 45 (km)

Metar:
METAR LECH 241430Z AUTO 12011KT CAVOK 30/22 Q1016

Temps: 24-07-2024 16:30 CEST